CTN4WR LDZD-LDZA
Flight info
| Callsign | CTN4WR |
|---|---|
| Flight time | 0h 22m |
| Altitude | 16000 |
| Route | RAVNA L607 ULPIN M986 KULEN/N0346F150 M986 KOTOR |
| Aircraft | A320/M-SDE3FGHIRWY/LB1 |
Departure
| Time | 2026-04-25 18:20 |
|---|---|
| Airport | Zadar Airport (LDZD) |
Arrival
| Time | 2026-04-25 18:42 |
|---|---|
| Airport | Zagreb Franjo Tuđman International Airport (LDZA) |
| Time | Latitude | Longitude | Altitude | Speed | Heading |
|---|---|---|---|---|---|
| 2026-04-25 17:59 | 44.09653 | 15.35442 | 261 ft | 0 kts | 257° |
| 2026-04-25 18:12 | 44.09652 | 15.35446 | 261 ft | 3 kts | 214° |
| 2026-04-25 18:13 | 44.09645 | 15.35449 | 261 ft | 1 kts | 180° |
| 2026-04-25 18:13 | 44.09627 | 15.35448 | 260 ft | 0 kts | 0° |
| 2026-04-25 18:15 | 44.09628 | 15.35448 | 260 ft | 1 kts | 1° |
| 2026-04-25 18:16 | 44.09651 | 15.35459 | 261 ft | 4 kts | 25° |
| 2026-04-25 18:16 | 44.09673 | 15.35478 | 262 ft | 4 kts | 35° |
| 2026-04-25 18:16 | 44.09716 | 15.35527 | 263 ft | 4 kts | 25° |
| 2026-04-25 18:17 | 44.09743 | 15.35536 | 264 ft | 4 kts | 6° |
| 2026-04-25 18:17 | 44.09772 | 15.35537 | 265 ft | 4 kts | 0° |
| 2026-04-25 18:17 | 44.09805 | 15.35537 | 265 ft | 5 kts | 360° |
| 2026-04-25 18:17 | 44.09843 | 15.35535 | 266 ft | 6 kts | 356° |
| 2026-04-25 18:18 | 44.09888 | 15.35534 | 267 ft | 7 kts | 11° |
| 2026-04-25 18:18 | 44.09933 | 15.35579 | 267 ft | 9 kts | 45° |
| 2026-04-25 18:18 | 44.09977 | 15.35643 | 268 ft | 10 kts | 46° |
| 2026-04-25 18:18 | 44.10027 | 15.35715 | 269 ft | 10 kts | 42° |
| 2026-04-25 18:19 | 44.10079 | 15.35693 | 269 ft | 8 kts | 317° |
| 2026-04-25 18:19 | 44.10124 | 15.35628 | 268 ft | 12 kts | 314° |
| 2026-04-25 18:19 | 44.10307 | 15.35377 | 265 ft | 71 kts | 316° |
| 2026-04-25 18:19 | 44.10786 | 15.34728 | 262 ft | 125 kts | 316° |
| 2026-04-25 18:20 | 44.11491 | 15.33762 | 312 ft | 160 kts | 315° |
| 2026-04-25 18:20 | 44.12259 | 15.32708 | 1018 ft | 150 kts | 315° |
| 2026-04-25 18:20 | 44.13024 | 15.31683 | 1529 ft | 159 kts | 315° |
| 2026-04-25 18:20 | 44.13875 | 15.30533 | 1775 ft | 183 kts | 315° |
| 2026-04-25 18:21 | 44.14841 | 15.29221 | 2111 ft | 207 kts | 315° |
| 2026-04-25 18:21 | 44.15917 | 15.27759 | 2490 ft | 232 kts | 315° |
| 2026-04-25 18:21 | 44.17143 | 15.26116 | 3005 ft | 253 kts | 317° |
| 2026-04-25 18:21 | 44.18523 | 15.24481 | 3861 ft | 260 kts | 320° |
| 2026-04-25 18:22 | 44.19906 | 15.22924 | 4757 ft | 264 kts | 320° |
| 2026-04-25 18:22 | 44.20395 | 15.22379 | 5049 ft | 266 kts | 320° |
| 2026-04-25 18:22 | 44.22883 | 15.19675 | 6541 ft | 273 kts | 327° |
| 2026-04-25 18:22 | 44.24659 | 15.18763 | 7345 ft | 279 kts | 352° |
| 2026-04-25 18:23 | 44.26590 | 15.18983 | 8202 ft | 284 kts | 15° |
| 2026-04-25 18:23 | 44.28450 | 15.19859 | 9081 ft | 286 kts | 18° |
| 2026-04-25 18:23 | 44.30344 | 15.20784 | 9960 ft | 289 kts | 18° |
| 2026-04-25 18:23 | 44.32253 | 15.21721 | 10393 ft | 306 kts | 18° |
| 2026-04-25 18:24 | 44.34346 | 15.22739 | 10609 ft | 328 kts | 18° |
| 2026-04-25 18:24 | 44.36543 | 15.23803 | 11155 ft | 337 kts | 18° |
| 2026-04-25 18:24 | 44.38819 | 15.24906 | 11844 ft | 342 kts | 18° |
| 2026-04-25 18:24 | 44.41068 | 15.25999 | 12540 ft | 346 kts | 18° |
| 2026-04-25 18:25 | 44.43334 | 15.27103 | 13232 ft | 349 kts | 18° |
| 2026-04-25 18:25 | 44.45632 | 15.28222 | 13900 ft | 353 kts | 18° |
| 2026-04-25 18:25 | 44.48001 | 15.29375 | 14490 ft | 357 kts | 18° |
| 2026-04-25 18:25 | 44.50314 | 15.30504 | 15063 ft | 361 kts | 18° |
| 2026-04-25 18:26 | 44.52744 | 15.31690 | 15663 ft | 364 kts | 17° |
| 2026-04-25 18:26 | 44.55150 | 15.32861 | 15964 ft | 367 kts | 17° |
| 2026-04-25 18:26 | 44.57543 | 15.34022 | 16033 ft | 376 kts | 17° |
| 2026-04-25 18:26 | 44.60042 | 15.35238 | 16039 ft | 381 kts | 17° |
| 2026-04-25 18:27 | 44.62556 | 15.36468 | 16040 ft | 383 kts | 17° |
| 2026-04-25 18:27 | 44.65065 | 15.37703 | 16037 ft | 383 kts | 18° |
| 2026-04-25 18:27 | 44.66780 | 15.38550 | 16035 ft | 383 kts | 17° |
| 2026-04-25 18:27 | 44.70095 | 15.40182 | 16034 ft | 383 kts | 17° |
| 2026-04-25 18:28 | 44.71789 | 15.41014 | 16033 ft | 383 kts | 17° |
| 2026-04-25 18:28 | 44.74278 | 15.42235 | 16032 ft | 383 kts | 17° |
| 2026-04-25 18:28 | 44.76794 | 15.43473 | 16029 ft | 382 kts | 17° |
| 2026-04-25 18:29 | 44.81832 | 15.45955 | 16022 ft | 382 kts | 17° |
| 2026-04-25 18:29 | 44.84309 | 15.47174 | 16021 ft | 382 kts | 17° |
| 2026-04-25 18:30 | 44.91856 | 15.50901 | 16024 ft | 382 kts | 17° |
| 2026-04-25 18:30 | 44.94347 | 15.52133 | 16025 ft | 382 kts | 17° |
| 2026-04-25 18:30 | 44.96821 | 15.53361 | 16019 ft | 382 kts | 17° |
| 2026-04-25 18:30 | 44.99325 | 15.54606 | 16012 ft | 374 kts | 17° |
| 2026-04-25 18:31 | 45.01749 | 15.55813 | 16015 ft | 367 kts | 17° |
| 2026-04-25 18:31 | 45.04182 | 15.57020 | 16002 ft | 366 kts | 17° |
| 2026-04-25 18:31 | 45.06580 | 15.58209 | 16002 ft | 366 kts | 17° |
| 2026-04-25 18:31 | 45.09019 | 15.59426 | 15993 ft | 356 kts | 17° |
| 2026-04-25 18:32 | 45.11224 | 15.60530 | 15766 ft | 345 kts | 17° |
| 2026-04-25 18:32 | 45.13474 | 15.61656 | 15391 ft | 341 kts | 17° |
| 2026-04-25 18:32 | 45.15716 | 15.62777 | 14975 ft | 339 kts | 17° |
| 2026-04-25 18:32 | 45.17930 | 15.63881 | 14468 ft | 339 kts | 17° |
| 2026-04-25 18:33 | 45.20152 | 15.64987 | 13973 ft | 339 kts | 17° |
| 2026-04-25 18:33 | 45.22348 | 15.66081 | 13449 ft | 340 kts | 17° |
| 2026-04-25 18:33 | 45.24590 | 15.67201 | 12889 ft | 340 kts | 17° |
| 2026-04-25 18:33 | 45.26807 | 15.68312 | 12356 ft | 338 kts | 18° |
| 2026-04-25 18:34 | 45.29011 | 15.69417 | 11816 ft | 326 kts | 18° |
| 2026-04-25 18:34 | 45.31111 | 15.70472 | 11299 ft | 316 kts | 18° |
| 2026-04-25 18:34 | 45.33158 | 15.71503 | 10782 ft | 308 kts | 18° |
| 2026-04-25 18:34 | 45.35136 | 15.72496 | 10283 ft | 300 kts | 18° |
| 2026-04-25 18:35 | 45.37109 | 15.73485 | 9766 ft | 294 kts | 19° |
| 2026-04-25 18:35 | 45.38979 | 15.74427 | 9239 ft | 289 kts | 19° |
| 2026-04-25 18:35 | 45.40897 | 15.75391 | 8674 ft | 286 kts | 18° |
| 2026-04-25 18:35 | 45.42755 | 15.76322 | 8146 ft | 284 kts | 18° |
| 2026-04-25 18:36 | 45.44645 | 15.77269 | 7614 ft | 283 kts | 18° |
| 2026-04-25 18:36 | 45.46467 | 15.78185 | 7104 ft | 281 kts | 19° |
| 2026-04-25 18:36 | 45.48303 | 15.79116 | 6602 ft | 278 kts | 18° |
| 2026-04-25 18:36 | 45.50115 | 15.80035 | 6078 ft | 274 kts | 18° |
| 2026-04-25 18:37 | 45.51820 | 15.80901 | 5828 ft | 261 kts | 18° |
| 2026-04-25 18:37 | 45.53513 | 15.81763 | 5695 ft | 253 kts | 18° |
| 2026-04-25 18:37 | 45.55123 | 15.82580 | 5570 ft | 244 kts | 18° |
| 2026-04-25 18:37 | 45.56718 | 15.83387 | 5441 ft | 236 kts | 18° |
| 2026-04-25 18:38 | 45.58237 | 15.84158 | 5176 ft | 234 kts | 18° |
| 2026-04-25 18:38 | 45.59744 | 15.85066 | 4800 ft | 238 kts | 32° |
| 2026-04-25 18:38 | 45.60967 | 15.86680 | 4366 ft | 241 kts | 46° |
| 2026-04-25 18:38 | 45.62105 | 15.88410 | 4032 ft | 234 kts | 46° |
| 2026-04-25 18:39 | 45.63218 | 15.90097 | 3599 ft | 231 kts | 46° |
| 2026-04-25 18:39 | 45.64318 | 15.91759 | 2989 ft | 238 kts | 46° |
| 2026-04-25 18:39 | 45.65465 | 15.93493 | 2544 ft | 235 kts | 46° |
| 2026-04-25 18:39 | 45.66561 | 15.95151 | 2232 ft | 226 kts | 46° |
| 2026-04-25 18:40 | 45.67613 | 15.96743 | 1961 ft | 212 kts | 46° |
| 2026-04-25 18:40 | 45.68582 | 15.98212 | 1679 ft | 190 kts | 46° |
| 2026-04-25 18:40 | 45.69425 | 15.99489 | 1440 ft | 165 kts | 46° |
| 2026-04-25 18:40 | 45.70156 | 16.00596 | 1180 ft | 152 kts | 46° |
| 2026-04-25 18:41 | 45.70851 | 16.01691 | 975 ft | 145 kts | 49° |
| 2026-04-25 18:41 | 45.71522 | 16.02724 | 769 ft | 140 kts | 46° |
| 2026-04-25 18:41 | 45.72192 | 16.03705 | 661 ft | 140 kts | 46° |
| 2026-04-25 18:41 | 45.72871 | 16.04700 | 509 ft | 139 kts | 48° |
| 2026-04-25 18:42 | 45.73514 | 16.05686 | 380 ft | 132 kts | 48° |
| 2026-04-25 18:42 | 45.73889 | 16.06261 | 365 ft | 116 kts | 48° |
| 2026-04-25 18:42 | 45.74411 | 16.07077 | 364 ft | 56 kts | 46° |
| 2026-04-25 18:42 | 45.74578 | 16.07328 | 365 ft | 20 kts | 46° |
| 2026-04-25 18:43 | 45.74661 | 16.07476 | 359 ft | 18 kts | 71° |
| 2026-04-25 18:43 | 45.74599 | 16.07616 | 357 ft | 0 kts | 135° |
| 2026-04-25 18:43 | 45.74597 | 16.07619 | 357 ft | 3 kts | 135° |
| 2026-04-25 18:43 | 45.74562 | 16.07666 | 362 ft | 10 kts | 137° |
| 2026-04-25 18:44 | 45.74506 | 16.07739 | 355 ft | 12 kts | 137° |
| 2026-04-25 18:44 | 45.74434 | 16.07834 | 357 ft | 15 kts | 137° |
| 2026-04-25 18:44 | 45.74357 | 16.07896 | 362 ft | 12 kts | 186° |
| 2026-04-25 18:44 | 45.74281 | 16.07861 | 359 ft | 12 kts | 158° |
| 2026-04-25 18:45 | 45.74248 | 16.07907 | 363 ft | 0 kts | 136° |